1K1 weather

Lloyd Stearman Field
Benton, Kansas, United States

Public forecast

Using degrees Fahrenheit for public forecast. Weather courtesy of forecast.io.

Closest aviation weather report (METAR) to Lloyd Stearman Field

Closest report is Colonel James Jabara Airport, 5.4 nm (10.0 km) WSW. Retrieved 2019/10/23 13:54 UTC (48 minutes ago):

KAAO 231354Z AUTO 18012KT 10SM CLR 11/01 A2990 RMK AO2 SLP126 T01110011

Closest aviation forecast (TAF) to Lloyd Stearman Field

Closest forecast is Mc Connell Air Force Base, 11.9 nm (22.0 km) SW. Retrieved 2019/10/23 10:04 UTC (5 hours ago):

TAF KIAB 231000Z 2310/2416 20009KT 9999 FEW150 WS020/18050KT QNH2991INS BECMG 2316/2317 26012G18KT 9999 FEW250 510042 QNH2992INS BECMG 2323/2324 VRB06KT 9999 FEW210 QNH2996INS BECMG 2409/2410 02012KT 9999 BKN020 QNH3019INS BECMG 2411/2412 02020G25KT 9000 -SHRA OVC020 QNH3027INS BECMG 2415/2416 02020G30KT 9000 -SHRA OVC020 QNH3038INS TX18/2321Z TN08/2410Z